sensor_id;sensor_type;location;lat;lon;timestamp;temperature;humidity
30379;DHT22;17168;49.164;9.060;2023-02-04T00:02:24;11.40;99.90
30379;DHT22;17168;49.164;9.060;2023-02-04T00:04:59;11.20;99.90
30379;DHT22;17168;49.164;9.060;2023-02-04T00:07:31;10.90;99.90
30379;DHT22;17168;49.164;9.060;2023-02-04T00:10:05;10.70;99.90
30379;DHT22;17168;49.164;9.060;2023-02-04T00:12:37;10.50;99.90
30379;DHT22;17168;49.164;9.060;2023-02-04T00:15:10;10.30;99.90
30379;DHT22;17168;49.164;9.060;2023-02-04T00:17:42;10.10;99.90
30379;DHT22;17168;49.164;9.060;2023-02-04T00:20:17;10.00;99.90
30379;DHT22;17168;49.164;9.060;2023-02-04T00:22:50;9.90;99.90
30379;DHT22;17168;49.164;9.060;2023-02-04T00:25:22;9.80;99.90
30379;DHT22;17168;49.164;9.060;2023-02-04T00:27:54;9.60;99.90
30379;DHT22;17168;49.164;9.060;2023-02-04T00:30:26;9.50;99.90
30379;DHT22;17168;49.164;9.060;2023-02-04T00:32:58;9.50;99.90
30379;DHT22;17168;49.164;9.060;2023-02-04T00:35:33;9.30;99.90
30379;DHT22;17168;49.164;9.060;2023-02-04T00:38:08;9.30;99.90
30379;DHT22;17168;49.164;9.060;2023-02-04T00:40:40;9.30;99.90
30379;DHT22;17168;49.164;9.060;2023-02-04T00:43:12;9.20;99.90
30379;DHT22;17168;49.164;9.060;2023-02-04T00:45:44;9.20;99.90
30379;DHT22;17168;49.164;9.060;2023-02-04T00:48:16;9.20;99.90
30379;DHT22;17168;49.164;9.060;2023-02-04T00:50:51;9.10;99.90
30379;DHT22;17168;49.164;9.060;2023-02-04T00:53:24;9.10;99.90
30379;DHT22;17168;49.164;9.060;2023-02-04T00:55:56;9.10;99.90
30379;DHT22;17168;49.164;9.060;2023-02-04T00:58:28;9.00;99.90
30379;DHT22;17168;49.164;9.060;2023-02-04T01:01:00;9.00;99.90
30379;DHT22;17168;49.164;9.060;2023-02-04T01:03:32;9.00;99.90
30379;DHT22;17168;49.164;9.060;2023-02-04T01:06:07;9.00;99.90
30379;DHT22;17168;49.164;9.060;2023-02-04T01:08:39;9.00;99.90
30379;DHT22;17168;49.164;9.060;2023-02-04T01:11:11;9.00;99.90
30379;DHT22;17168;49.164;9.060;2023-02-04T01:13:43;9.00;99.90
30379;DHT22;17168;49.164;9.060;2023-02-04T01:16:15;9.00;99.90
30379;DHT22;17168;49.164;9.060;2023-02-04T01:18:48;9.00;99.90
30379;DHT22;17168;49.164;9.060;2023-02-04T01:21:22;9.00;99.90
30379;DHT22;17168;49.164;9.060;2023-02-04T01:23:55;9.00;99.90
30379;DHT22;17168;49.164;9.060;2023-02-04T01:26:27;9.00;99.90
30379;DHT22;17168;49.164;9.060;2023-02-04T01:28:59;9.00;99.90
30379;DHT22;17168;49.164;9.060;2023-02-04T01:31:31;9.00;99.90
30379;DHT22;17168;49.164;9.060;2023-02-04T01:34:04;9.00;99.90
30379;DHT22;17168;49.164;9.060;2023-02-04T01:36:40;9.00;99.90
30379;DHT22;17168;49.164;9.060;2023-02-04T01:39:12;9.00;99.90
30379;DHT22;17168;49.164;9.060;2023-02-04T01:41:44;9.00;99.90
30379;DHT22;17168;49.164;9.060;2023-02-04T01:44:16;9.00;99.90
30379;DHT22;17168;49.164;9.060;2023-02-04T01:46:48;9.00;99.90
30379;DHT22;17168;49.164;9.060;2023-02-04T01:49:21;9.00;99.90
30379;DHT22;17168;49.164;9.060;2023-02-04T01:51:56;9.00;99.90
30379;DHT22;17168;49.164;9.060;2023-02-04T01:54:28;9.00;99.90
30379;DHT22;17168;49.164;9.060;2023-02-04T01:57:01;9.00;99.90
30379;DHT22;17168;49.164;9.060;2023-02-04T01:59:34;9.00;99.90
30379;DHT22;17168;49.164;9.060;2023-02-04T02:02:40;9.00;99.90
30379;DHT22;17168;49.164;9.060;2023-02-04T02:05:15;9.00;99.90
30379;DHT22;17168;49.164;9.060;2023-02-04T02:07:53;9.00;99.90
30379;DHT22;17168;49.164;9.060;2023-02-04T02:10:26;9.00;99.90
30379;DHT22;17168;49.164;9.060;2023-02-04T02:12:59;8.90;99.90
30379;DHT22;17168;49.164;9.060;2023-02-04T02:15:31;8.90;99.90
30379;DHT22;17168;49.164;9.060;2023-02-04T02:18:03;8.90;99.90
30379;DHT22;17168;49.164;9.060;2023-02-04T02:20:35;8.90;99.90
30379;DHT22;17168;49.164;9.060;2023-02-04T02:23:15;8.90;99.90
30379;DHT22;17168;49.164;9.060;2023-02-04T02:25:51;8.90;99.90
30379;DHT22;17168;49.164;9.060;2023-02-04T02:28:23;8.90;99.90
30379;DHT22;17168;49.164;9.060;2023-02-04T02:30:56;8.90;99.90
30379;DHT22;17168;49.164;9.060;2023-02-04T02:33:28;8.90;99.90
30379;DHT22;17168;49.164;9.060;2023-02-04T02:36:00;8.90;99.90
30379;DHT22;17168;49.164;9.060;2023-02-04T02:38:32;8.90;99.90
30379;DHT22;17168;49.164;9.060;2023-02-04T02:41:07;8.90;99.90
30379;DHT22;17168;49.164;9.060;2023-02-04T02:43:41;8.90;99.90
30379;DHT22;17168;49.164;9.060;2023-02-04T02:46:13;8.90;99.90
30379;DHT22;17168;49.164;9.060;2023-02-04T02:49:10;8.80;99.90
30379;DHT22;17168;49.164;9.060;2023-02-04T02:51:49;8.90;99.90
30379;DHT22;17168;49.164;9.060;2023-02-04T02:54:23;8.90;99.90
30379;DHT22;17168;49.164;9.060;2023-02-04T02:56:58;8.90;99.90
30379;DHT22;17168;49.164;9.060;2023-02-04T02:59:30;8.90;99.90
30379;DHT22;17168;49.164;9.060;2023-02-04T03:02:03;8.90;99.90
30379;DHT22;17168;49.164;9.060;2023-02-04T03:04:39;8.80;99.90
30379;DHT22;17168;49.164;9.060;2023-02-04T03:07:13;8.80;99.90
30379;DHT22;17168;49.164;9.060;2023-02-04T03:09:46;8.80;99.90
30379;DHT22;17168;49.164;9.060;2023-02-04T03:12:20;8.80;99.90
30379;DHT22;17168;49.164;9.060;2023-02-04T03:14:52;8.80;99.90
30379;DHT22;17168;49.164;9.060;2023-02-04T03:17:25;8.70;99.90
30379;DHT22;17168;49.164;9.060;2023-02-04T03:19:57;8.80;99.90
30379;DHT22;17168;49.164;9.060;2023-02-04T03:22:29;8.70;99.90
30379;DHT22;17168;49.164;9.060;2023-02-04T03:25:01;8.70;99.90
30379;DHT22;17168;49.164;9.060;2023-02-04T03:27:37;8.70;99.90
30379;DHT22;17168;49.164;9.060;2023-02-04T03:30:10;8.70;99.90
30379;DHT22;17168;49.164;9.060;2023-02-04T03:32:42;8.70;99.90
30379;DHT22;17168;49.164;9.060;2023-02-04T03:35:14;8.70;99.90
30379;DHT22;17168;49.164;9.060;2023-02-04T03:37:46;8.70;99.90
30379;DHT22;17168;49.164;9.060;2023-02-04T03:40:18;8.60;99.90
30379;DHT22;17168;49.164;9.060;2023-02-04T03:42:53;8.60;99.90
30379;DHT22;17168;49.164;9.060;2023-02-04T03:45:25;8.60;99.90
30379;DHT22;17168;49.164;9.060;2023-02-04T03:48:03;8.60;99.90
30379;DHT22;17168;49.164;9.060;2023-02-04T03:50:35;8.60;99.90
30379;DHT22;17168;49.164;9.060;2023-02-04T03:53:07;8.60;99.90
30379;DHT22;17168;49.164;9.060;2023-02-04T03:55:39;8.60;99.90
30379;DHT22;17168;49.164;9.060;2023-02-04T03:58:14;8.60;99.90
30379;DHT22;17168;49.164;9.060;2023-02-04T04:00:46;8.50;99.90
30379;DHT22;17168;49.164;9.060;2023-02-04T04:03:18;8.60;99.90
30379;DHT22;17168;49.164;9.060;2023-02-04T04:05:50;8.50;99.90
30379;DHT22;17168;49.164;9.060;2023-02-04T04:08:22;8.50;99.90
30379;DHT22;17168;49.164;9.060;2023-02-04T04:10:54;8.50;99.90
30379;DHT22;17168;49.164;9.060;2023-02-04T04:13:28;8.50;99.90
30379;DHT22;17168;49.164;9.060;2023-02-04T04:16:00;8.40;99.90
30379;DHT22;17168;49.164;9.060;2023-02-04T04:18:35;8.40;99.90
30379;DHT22;17168;49.164;9.060;2023-02-04T04:21:07;8.40;99.90
30379;DHT22;17168;49.164;9.060;2023-02-04T04:23:42;8.40;99.90
30379;DHT22;17168;49.164;9.060;2023-02-04T04:26:14;8.30;99.90
30379;DHT22;17168;49.164;9.060;2023-02-04T04:28:49;8.40;99.90
30379;DHT22;17168;49.164;9.060;2023-02-04T04:31:21;8.30;99.90
30379;DHT22;17168;49.164;9.060;2023-02-04T04:33:54;8.30;99.90
30379;DHT22;17168;49.164;9.060;2023-02-04T04:36:29;8.30;99.90
30379;DHT22;17168;49.164;9.060;2023-02-04T04:39:02;8.30;99.90
30379;DHT22;17168;49.164;9.060;2023-02-04T04:41:39;8.30;99.90
30379;DHT22;17168;49.164;9.060;2023-02-04T04:44:17;8.30;99.90
30379;DHT22;17168;49.164;9.060;2023-02-04T04:46:54;8.30;99.90
30379;DHT22;17168;49.164;9.060;2023-02-04T04:49:26;8.30;99.90
30379;DHT22;17168;49.164;9.060;2023-02-04T04:51:58;8.20;99.90
30379;DHT22;17168;49.164;9.060;2023-02-04T04:54:30;8.30;99.90
30379;DHT22;17168;49.164;9.060;2023-02-04T04:57:02;8.30;99.90
30379;DHT22;17168;49.164;9.060;2023-02-04T04:59:37;8.30;99.90
30379;DHT22;17168;49.164;9.060;2023-02-04T05:02:14;8.30;99.90
30379;DHT22;17168;49.164;9.060;2023-02-04T05:04:45;8.30;99.90
30379;DHT22;17168;49.164;9.060;2023-02-04T05:07:18;8.20;99.90
30379;DHT22;17168;49.164;9.060;2023-02-04T05:09:50;8.20;99.90
30379;DHT22;17168;49.164;9.060;2023-02-04T05:12:22;8.20;99.90
30379;DHT22;17168;49.164;9.060;2023-02-04T05:14:56;8.20;99.90
30379;DHT22;17168;49.164;9.060;2023-02-04T05:17:28;8.20;99.90
30379;DHT22;17168;49.164;9.060;2023-02-04T05:20:00;8.20;99.90
30379;DHT22;17168;49.164;9.060;2023-02-04T05:22:32;8.10;99.90
30379;DHT22;17168;49.164;9.060;2023-02-04T05:25:09;8.10;99.90
30379;DHT22;17168;49.164;9.060;2023-02-04T05:27:42;8.10;99.90
30379;DHT22;17168;49.164;9.060;2023-02-04T05:30:17;8.10;99.90
30379;DHT22;17168;49.164;9.060;2023-02-04T05:32:49;8.10;99.90
30379;DHT22;17168;49.164;9.060;2023-02-04T05:35:21;8.10;99.90
30379;DHT22;17168;49.164;9.060;2023-02-04T05:37:53;8.10;99.90
30379;DHT22;17168;49.164;9.060;2023-02-04T05:40:25;8.20;99.90
30379;DHT22;17168;49.164;9.060;2023-02-04T05:42:57;8.20;99.90
30379;DHT22;17168;49.164;9.060;2023-02-04T05:45:31;8.20;99.90
30379;DHT22;17168;49.164;9.060;2023-02-04T05:48:03;8.20;99.90
30379;DHT22;17168;49.164;9.060;2023-02-04T05:50:35;8.20;99.90
30379;DHT22;17168;49.164;9.060;2023-02-04T05:53:07;8.20;99.90
30379;DHT22;17168;49.164;9.060;2023-02-04T05:55:39;8.20;99.90
30379;DHT22;17168;49.164;9.060;2023-02-04T05:58:11;8.20;99.90
30379;DHT22;17168;49.164;9.060;2023-02-04T06:00:45;8.20;99.90
30379;DHT22;17168;49.164;9.060;2023-02-04T06:03:17;8.20;99.90
30379;DHT22;17168;49.164;9.060;2023-02-04T06:05:50;8.20;99.90
30379;DHT22;17168;49.164;9.060;2023-02-04T06:08:22;8.10;99.90
30379;DHT22;17168;49.164;9.060;2023-02-04T06:10:53;8.10;99.90
30379;DHT22;17168;49.164;9.060;2023-02-04T06:13:25;8.10;99.90
30379;DHT22;17168;49.164;9.060;2023-02-04T06:16:00;8.10;99.90
30379;DHT22;17168;49.164;9.060;2023-02-04T06:18:32;8.00;99.90
30379;DHT22;17168;49.164;9.060;2023-02-04T06:21:04;8.00;99.90
30379;DHT22;17168;49.164;9.060;2023-02-04T06:23:36;8.00;99.90
30379;DHT22;17168;49.164;9.060;2023-02-04T06:26:08;7.90;99.90
30379;DHT22;17168;49.164;9.060;2023-02-04T06:28:40;7.90;99.90
30379;DHT22;17168;49.164;9.060;2023-02-04T06:31:15;7.90;99.90
30379;DHT22;17168;49.164;9.060;2023-02-04T06:33:47;7.90;99.90
30379;DHT22;17168;49.164;9.060;2023-02-04T06:36:18;7.80;99.90
30379;DHT22;17168;49.164;9.060;2023-02-04T06:38:50;7.80;99.90
30379;DHT22;17168;49.164;9.060;2023-02-04T06:41:23;7.80;99.90
30379;DHT22;17168;49.164;9.060;2023-02-04T06:43:55;7.80;99.90
30379;DHT22;17168;49.164;9.060;2023-02-04T06:46:29;7.80;99.90
30379;DHT22;17168;49.164;9.060;2023-02-04T06:49:01;7.80;99.90
30379;DHT22;17168;49.164;9.060;2023-02-04T06:51:33;7.80;99.90
30379;DHT22;17168;49.164;9.060;2023-02-04T06:54:05;7.70;99.90
30379;DHT22;17168;49.164;9.060;2023-02-04T06:56:37;7.60;99.90
30379;DHT22;17168;49.164;9.060;2023-02-04T06:59:09;7.60;99.90
30379;DHT22;17168;49.164;9.060;2023-02-04T07:01:44;7.50;99.90
30379;DHT22;17168;49.164;9.060;2023-02-04T07:04:19;7.50;99.90
30379;DHT22;17168;49.164;9.060;2023-02-04T07:06:51;7.40;99.90
30379;DHT22;17168;49.164;9.060;2023-02-04T07:09:23;7.40;99.90
30379;DHT22;17168;49.164;9.060;2023-02-04T07:11:55;7.40;99.90
30379;DHT22;17168;49.164;9.060;2023-02-04T07:14:27;7.40;99.90
30379;DHT22;17168;49.164;9.060;2023-02-04T07:17:02;7.30;99.90
30379;DHT22;17168;49.164;9.060;2023-02-04T07:19:36;7.40;99.90
30379;DHT22;17168;49.164;9.060;2023-02-04T07:22:08;7.40;99.90
30379;DHT22;17168;49.164;9.060;2023-02-04T07:24:40;7.40;99.90
30379;DHT22;17168;49.164;9.060;2023-02-04T07:27:12;7.40;99.90
30379;DHT22;17168;49.164;9.060;2023-02-04T07:29:44;7.40;99.90
30379;DHT22;17168;49.164;9.060;2023-02-04T07:32:19;7.40;99.90
30379;DHT22;17168;49.164;9.060;2023-02-04T07:34:51;7.40;99.90
30379;DHT22;17168;49.164;9.060;2023-02-04T07:37:23;7.40;99.90
30379;DHT22;17168;49.164;9.060;2023-02-04T07:39:55;7.40;99.90
30379;DHT22;17168;49.164;9.060;2023-02-04T07:42:27;7.50;99.90
30379;DHT22;17168;49.164;9.060;2023-02-04T07:44:59;7.50;99.90
30379;DHT22;17168;49.164;9.060;2023-02-04T07:47:33;7.50;99.90
30379;DHT22;17168;49.164;9.060;2023-02-04T07:50:05;7.50;99.90
30379;DHT22;17168;49.164;9.060;2023-02-04T07:52:37;7.50;99.90
30379;DHT22;17168;49.164;9.060;2023-02-04T07:55:09;7.50;99.90
30379;DHT22;17168;49.164;9.060;2023-02-04T07:57:41;7.60;99.90
30379;DHT22;17168;49.164;9.060;2023-02-04T08:00:14;7.60;99.90
30379;DHT22;17168;49.164;9.060;2023-02-04T08:02:49;7.60;99.90
30379;DHT22;17168;49.164;9.060;2023-02-04T08:05:21;7.60;99.90
30379;DHT22;17168;49.164;9.060;2023-02-04T08:07:53;7.60;99.90
30379;DHT22;17168;49.164;9.060;2023-02-04T08:10:25;7.70;99.90
30379;DHT22;17168;49.164;9.060;2023-02-04T08:12:57;7.70;99.90
30379;DHT22;17168;49.164;9.060;2023-02-04T08:15:29;7.70;99.90
30379;DHT22;17168;49.164;9.060;2023-02-04T08:18:03;7.70;99.90
30379;DHT22;17168;49.164;9.060;2023-02-04T08:20:35;7.70;99.90
30379;DHT22;17168;49.164;9.060;2023-02-04T08:23:07;7.70;99.90
30379;DHT22;17168;49.164;9.060;2023-02-04T08:25:39;7.60;99.90
30379;DHT22;17168;49.164;9.060;2023-02-04T08:28:11;7.60;99.90
30379;DHT22;17168;49.164;9.060;2023-02-04T08:30:43;7.60;99.90
30379;DHT22;17168;49.164;9.060;2023-02-04T08:33:18;7.60;99.90
30379;DHT22;17168;49.164;9.060;2023-02-04T08:35:50;7.60;99.90
30379;DHT22;17168;49.164;9.060;2023-02-04T08:38:22;7.60;99.90
30379;DHT22;17168;49.164;9.060;2023-02-04T08:40:55;7.60;99.90
30379;DHT22;17168;49.164;9.060;2023-02-04T08:43:26;7.60;99.90
30379;DHT22;17168;49.164;9.060;2023-02-04T08:45:58;7.70;99.90
30379;DHT22;17168;49.164;9.060;2023-02-04T08:48:33;7.70;99.90
30379;DHT22;17168;49.164;9.060;2023-02-04T08:51:05;7.70;99.90
30379;DHT22;17168;49.164;9.060;2023-02-04T08:53:37;7.70;99.90
30379;DHT22;17168;49.164;9.060;2023-02-04T08:56:11;7.70;99.90
30379;DHT22;17168;49.164;9.060;2023-02-04T08:58:47;7.80;99.90
30379;DHT22;17168;49.164;9.060;2023-02-04T09:01:19;7.80;99.90
30379;DHT22;17168;49.164;9.060;2023-02-04T09:03:53;7.80;99.90
30379;DHT22;17168;49.164;9.060;2023-02-04T09:06:25;7.80;99.90
30379;DHT22;17168;49.164;9.060;2023-02-04T09:08:57;7.90;99.90
30379;DHT22;17168;49.164;9.060;2023-02-04T09:11:29;7.90;99.90
30379;DHT22;17168;49.164;9.060;2023-02-04T09:14:00;7.90;99.90
30379;DHT22;17168;49.164;9.060;2023-02-04T09:16:32;8.00;99.90
30379;DHT22;17168;49.164;9.060;2023-02-04T09:19:07;8.00;99.90
30379;DHT22;17168;49.164;9.060;2023-02-04T09:21:41;8.10;99.90
30379;DHT22;17168;49.164;9.060;2023-02-04T09:24:13;8.10;99.90
30379;DHT22;17168;49.164;9.060;2023-02-04T09:26:45;8.20;99.90
30379;DHT22;17168;49.164;9.060;2023-02-04T09:29:16;8.20;99.90
30379;DHT22;17168;49.164;9.060;2023-02-04T09:31:48;8.20;99.90
30379;DHT22;17168;49.164;9.060;2023-02-04T09:34:23;8.20;99.90
30379;DHT22;17168;49.164;9.060;2023-02-04T09:36:55;8.30;99.90
30379;DHT22;17168;49.164;9.060;2023-02-04T09:39:27;8.30;99.90
30379;DHT22;17168;49.164;9.060;2023-02-04T09:41:59;8.30;99.90
30379;DHT22;17168;49.164;9.060;2023-02-04T09:44:31;8.30;99.90
30379;DHT22;17168;49.164;9.060;2023-02-04T09:47:03;8.30;99.90
30379;DHT22;17168;49.164;9.060;2023-02-04T09:49:37;8.30;99.90
30379;DHT22;17168;49.164;9.060;2023-02-04T09:52:10;8.30;99.90
30379;DHT22;17168;49.164;9.060;2023-02-04T09:54:43;8.30;99.90
30379;DHT22;17168;49.164;9.060;2023-02-04T09:57:15;8.30;99.90
30379;DHT22;17168;49.164;9.060;2023-02-04T09:59:48;8.30;99.90
30379;DHT22;17168;49.164;9.060;2023-02-04T10:02:21;8.40;99.90
30379;DHT22;17168;49.164;9.060;2023-02-04T10:04:56;8.40;99.90
30379;DHT22;17168;49.164;9.060;2023-02-04T10:07:28;8.40;99.90
30379;DHT22;17168;49.164;9.060;2023-02-04T10:10:02;8.40;99.90
30379;DHT22;17168;49.164;9.060;2023-02-04T10:12:34;8.40;99.90
30379;DHT22;17168;49.164;9.060;2023-02-04T10:15:07;8.50;99.90
30379;DHT22;17168;49.164;9.060;2023-02-04T10:17:42;8.50;99.90
30379;DHT22;17168;49.164;9.060;2023-02-04T10:20:19;8.50;99.90
30379;DHT22;17168;49.164;9.060;2023-02-04T10:22:53;8.50;99.90
30379;DHT22;17168;49.164;9.060;2023-02-04T10:25:26;8.60;99.90
30379;DHT22;17168;49.164;9.060;2023-02-04T10:27:59;8.60;99.90
30379;DHT22;17168;49.164;9.060;2023-02-04T10:30:38;8.70;99.90
30379;DHT22;17168;49.164;9.060;2023-02-04T10:33:14;8.70;99.90
30379;DHT22;17168;49.164;9.060;2023-02-04T10:35:51;8.70;99.90
30379;DHT22;17168;49.164;9.060;2023-02-04T10:38:23;8.80;99.90
30379;DHT22;17168;49.164;9.060;2023-02-04T10:41:02;8.90;99.90
30379;DHT22;17168;49.164;9.060;2023-02-04T10:43:35;8.90;99.90
30379;DHT22;17168;49.164;9.060;2023-02-04T10:46:07;9.00;99.90
30379;DHT22;17168;49.164;9.060;2023-02-04T10:48:40;9.00;99.90
30379;DHT22;17168;49.164;9.060;2023-02-04T10:51:15;9.00;99.90
30379;DHT22;17168;49.164;9.060;2023-02-04T10:53:47;9.10;99.90
30379;DHT22;17168;49.164;9.060;2023-02-04T10:56:37;9.10;99.90
30379;DHT22;17168;49.164;9.060;2023-02-04T10:59:19;9.10;99.90
30379;DHT22;17168;49.164;9.060;2023-02-04T11:01:54;9.10;99.90
30379;DHT22;17168;49.164;9.060;2023-02-04T11:04:27;9.10;99.90
30379;DHT22;17168;49.164;9.060;2023-02-04T11:07:02;9.10;99.90
30379;DHT22;17168;49.164;9.060;2023-02-04T11:09:34;9.10;99.90
30379;DHT22;17168;49.164;9.060;2023-02-04T11:12:19;9.10;99.90
30379;DHT22;17168;49.164;9.060;2023-02-04T11:14:55;9.10;99.90
30379;DHT22;17168;49.164;9.060;2023-02-04T11:17:32;9.10;99.90
30379;DHT22;17168;49.164;9.060;2023-02-04T11:20:15;9.10;99.90
30379;DHT22;17168;49.164;9.060;2023-02-04T11:22:50;9.10;99.90
30379;DHT22;17168;49.164;9.060;2023-02-04T11:25:31;9.10;99.90
30379;DHT22;17168;49.164;9.060;2023-02-04T11:28:12;9.20;99.90
30379;DHT22;17168;49.164;9.060;2023-02-04T11:30:45;9.20;99.90
30379;DHT22;17168;49.164;9.060;2023-02-04T11:33:22;9.20;99.90
30379;DHT22;17168;49.164;9.060;2023-02-04T11:36:01;9.20;99.90
30379;DHT22;17168;49.164;9.060;2023-02-04T11:38:38;9.30;99.90
30379;DHT22;17168;49.164;9.060;2023-02-04T11:41:14;9.30;99.90
30379;DHT22;17168;49.164;9.060;2023-02-04T11:43:49;9.40;99.90
30379;DHT22;17168;49.164;9.060;2023-02-04T11:46:22;9.40;99.90
30379;DHT22;17168;49.164;9.060;2023-02-04T11:48:57;9.50;99.90
30379;DHT22;17168;49.164;9.060;2023-02-04T11:51:29;9.50;99.90
30379;DHT22;17168;49.164;9.060;2023-02-04T11:54:04;9.50;99.90
30379;DHT22;17168;49.164;9.060;2023-02-04T11:56:37;9.50;99.90
30379;DHT22;17168;49.164;9.060;2023-02-04T11:59:10;9.50;99.90
30379;DHT22;17168;49.164;9.060;2023-02-04T12:01:42;9.60;99.90
30379;DHT22;17168;49.164;9.060;2023-02-04T12:04:20;9.60;99.90
30379;DHT22;17168;49.164;9.060;2023-02-04T12:06:56;9.60;99.90
30379;DHT22;17168;49.164;9.060;2023-02-04T12:09:31;9.60;99.90
30379;DHT22;17168;49.164;9.060;2023-02-04T12:12:03;9.60;99.90
30379;DHT22;17168;49.164;9.060;2023-02-04T12:14:35;9.60;99.90
30379;DHT22;17168;49.164;9.060;2023-02-04T12:17:13;9.70;99.90
30379;DHT22;17168;49.164;9.060;2023-02-04T12:19:45;9.80;99.90
30379;DHT22;17168;49.164;9.060;2023-02-04T12:22:17;9.90;99.90
30379;DHT22;17168;49.164;9.060;2023-02-04T12:24:52;10.10;99.90
30379;DHT22;17168;49.164;9.060;2023-02-04T12:27:24;10.30;99.90
30379;DHT22;17168;49.164;9.060;2023-02-04T12:29:56;10.40;99.90
30379;DHT22;17168;49.164;9.060;2023-02-04T12:32:28;10.40;99.90
30379;DHT22;17168;49.164;9.060;2023-02-04T12:35:00;10.50;99.90
30379;DHT22;17168;49.164;9.060;2023-02-04T12:37:32;10.40;99.90
30379;DHT22;17168;49.164;9.060;2023-02-04T12:40:08;10.50;99.90
30379;DHT22;17168;49.164;9.060;2023-02-04T12:42:41;10.60;99.90
30379;DHT22;17168;49.164;9.060;2023-02-04T12:45:14;11.00;99.90
30379;DHT22;17168;49.164;9.060;2023-02-04T12:47:47;11.50;99.90
30379;DHT22;17168;49.164;9.060;2023-02-04T12:50:50;12.20;99.90
30379;DHT22;17168;49.164;9.060;2023-02-04T12:53:12;12.80;99.90
30379;DHT22;17168;49.164;9.060;2023-02-04T12:55:47;13.60;99.90
30379;DHT22;17168;49.164;9.060;2023-02-04T12:58:20;14.30;99.90
30379;DHT22;17168;49.164;9.060;2023-02-04T13:00:52;14.90;99.90
30379;DHT22;17168;49.164;9.060;2023-02-04T13:03:24;15.50;99.90
30379;DHT22;17168;49.164;9.060;2023-02-04T13:05:57;16.00;99.90
30379;DHT22;17168;49.164;9.060;2023-02-04T13:08:32;16.20;99.90
30379;DHT22;17168;49.164;9.060;2023-02-04T13:11:07;16.10;99.90
30379;DHT22;17168;49.164;9.060;2023-02-04T13:13:39;16.10;99.90
30379;DHT22;17168;49.164;9.060;2023-02-04T13:16:12;16.10;99.90
30379;DHT22;17168;49.164;9.060;2023-02-04T13:18:44;16.10;99.90
30379;DHT22;17168;49.164;9.060;2023-02-04T13:21:16;16.50;99.90
30379;DHT22;17168;49.164;9.060;2023-02-04T13:23:48;16.50;99.00
30379;DHT22;17168;49.164;9.060;2023-02-04T13:26:23;16.40;99.90
30379;DHT22;17168;49.164;9.060;2023-02-04T13:28:55;16.60;98.10
30379;DHT22;17168;49.164;9.060;2023-02-04T13:31:27;16.90;94.70
30379;DHT22;17168;49.164;9.060;2023-02-04T13:33:59;17.00;92.90
30379;DHT22;17168;49.164;9.060;2023-02-04T13:36:31;17.00;93.40
30379;DHT22;17168;49.164;9.060;2023-02-04T13:39:03;17.00;93.90
30379;DHT22;17168;49.164;9.060;2023-02-04T13:41:38;16.90;94.70
30379;DHT22;17168;49.164;9.060;2023-02-04T13:44:10;16.80;94.10
30379;DHT22;17168;49.164;9.060;2023-02-04T13:46:42;16.50;93.90
30379;DHT22;17168;49.164;9.060;2023-02-04T13:49:14;16.30;93.80
30379;DHT22;17168;49.164;9.060;2023-02-04T13:51:46;16.40;94.30
30379;DHT22;17168;49.164;9.060;2023-02-04T13:54:18;16.50;93.50
30379;DHT22;17168;49.164;9.060;2023-02-04T13:56:52;16.60;92.60
30379;DHT22;17168;49.164;9.060;2023-02-04T13:59:24;16.70;93.30
30379;DHT22;17168;49.164;9.060;2023-02-04T14:01:56;16.90;93.30
30379;DHT22;17168;49.164;9.060;2023-02-04T14:04:29;17.10;92.20
30379;DHT22;17168;49.164;9.060;2023-02-04T14:07:01;17.30;90.70
30379;DHT22;17168;49.164;9.060;2023-02-04T14:09:33;17.40;91.30
30379;DHT22;17168;49.164;9.060;2023-02-04T14:12:08;17.50;90.60
30379;DHT22;17168;49.164;9.060;2023-02-04T14:14:40;17.50;88.60
30379;DHT22;17168;49.164;9.060;2023-02-04T14:17:12;17.40;88.30
30379;DHT22;17168;49.164;9.060;2023-02-04T14:19:44;17.20;88.90
30379;DHT22;17168;49.164;9.060;2023-02-04T14:22:16;16.90;82.50
30379;DHT22;17168;49.164;9.060;2023-02-04T14:24:48;16.50;85.40
30379;DHT22;17168;49.164;9.060;2023-02-04T14:27:23;16.30;87.20
30379;DHT22;17168;49.164;9.060;2023-02-04T14:29:55;16.10;89.10
30379;DHT22;17168;49.164;9.060;2023-02-04T14:32:28;15.90;90.00
30379;DHT22;17168;49.164;9.060;2023-02-04T14:34:59;15.70;90.30
30379;DHT22;17168;49.164;9.060;2023-02-04T14:37:32;15.40;90.00
30379;DHT22;17168;49.164;9.060;2023-02-04T14:40:05;15.10;90.10
30379;DHT22;17168;49.164;9.060;2023-02-04T14:42:40;14.80;90.20
30379;DHT22;17168;49.164;9.060;2023-02-04T14:45:13;14.50;90.40
30379;DHT22;17168;49.164;9.060;2023-02-04T14:47:45;14.30;90.70
30379;DHT22;17168;49.164;9.060;2023-02-04T14:50:18;14.00;91.10
30379;DHT22;17168;49.164;9.060;2023-02-04T14:52:50;13.90;91.40
30379;DHT22;17168;49.164;9.060;2023-02-04T14:55:22;13.70;91.70
30379;DHT22;17168;49.164;9.060;2023-02-04T14:57:57;13.50;91.80
30379;DHT22;17168;49.164;9.060;2023-02-04T15:00:29;13.30;92.00
30379;DHT22;17168;49.164;9.060;2023-02-04T15:03:01;13.10;92.30
30379;DHT22;17168;49.164;9.060;2023-02-04T15:05:33;12.90;91.90
30379;DHT22;17168;49.164;9.060;2023-02-04T15:08:05;12.60;92.00
30379;DHT22;17168;49.164;9.060;2023-02-04T15:10:37;12.50;92.20
30379;DHT22;17168;49.164;9.060;2023-02-04T15:13:12;12.30;92.60
30379;DHT22;17168;49.164;9.060;2023-02-04T15:15:44;12.20;92.70
30379;DHT22;17168;49.164;9.060;2023-02-04T15:18:16;12.00;92.90
30379;DHT22;17168;49.164;9.060;2023-02-04T15:20:48;11.90;93.30
30379;DHT22;17168;49.164;9.060;2023-02-04T15:23:20;11.80;93.50
30379;DHT22;17168;49.164;9.060;2023-02-04T15:25:52;11.70;93.80
30379;DHT22;17168;49.164;9.060;2023-02-04T15:28:30;11.60;93.90
30379;DHT22;17168;49.164;9.060;2023-02-04T15:31:03;11.40;94.10
30379;DHT22;17168;49.164;9.060;2023-02-04T15:33:36;11.30;94.30
30379;DHT22;17168;49.164;9.060;2023-02-04T15:36:08;11.20;94.40
30379;DHT22;17168;49.164;9.060;2023-02-04T15:38:40;11.00;94.50
30379;DHT22;17168;49.164;9.060;2023-02-04T15:41:13;10.90;94.70
30379;DHT22;17168;49.164;9.060;2023-02-04T15:43:47;10.80;94.60
30379;DHT22;17168;49.164;9.060;2023-02-04T15:46:20;10.70;94.60
30379;DHT22;17168;49.164;9.060;2023-02-04T15:48:52;10.60;94.70
30379;DHT22;17168;49.164;9.060;2023-02-04T15:51:24;10.50;94.70
30379;DHT22;17168;49.164;9.060;2023-02-04T15:53:57;10.40;94.80
30379;DHT22;17168;49.164;9.060;2023-02-04T15:56:29;10.30;94.80
30379;DHT22;17168;49.164;9.060;2023-02-04T15:59:04;10.20;95.00
30379;DHT22;17168;49.164;9.060;2023-02-04T16:01:36;10.10;95.10
30379;DHT22;17168;49.164;9.060;2023-02-04T16:04:08;10.00;95.20
30379;DHT22;17168;49.164;9.060;2023-02-04T16:06:40;10.00;95.20
30379;DHT22;17168;49.164;9.060;2023-02-04T16:09:24;9.90;95.30
30379;DHT22;17168;49.164;9.060;2023-02-04T16:11:56;9.90;95.40
30379;DHT22;17168;49.164;9.060;2023-02-04T16:14:31;9.80;95.60
30379;DHT22;17168;49.164;9.060;2023-02-04T16:17:03;9.70;96.00
30379;DHT22;17168;49.164;9.060;2023-02-04T16:19:37;9.60;95.90
30379;DHT22;17168;49.164;9.060;2023-02-04T16:22:09;9.60;96.00